sensor_id;sensor_type;location;lat;lon;timestamp;pressure;altitude;pressure_sealevel;temperature;humidity
56070;BME280;41944;52.078;-0.058;2023-04-28T00:00:45;100603.42;;;10.70;100.00
56070;BME280;41944;52.078;-0.058;2023-04-28T00:03:12;100598.49;;;10.67;100.00
56070;BME280;41944;52.078;-0.058;2023-04-28T00:05:39;100590.59;;;10.76;100.00
56070;BME280;41944;52.078;-0.058;2023-04-28T00:08:07;100585.11;;;10.86;100.00
56070;BME280;41944;52.078;-0.058;2023-04-28T00:10:34;100579.57;;;10.78;100.00
56070;BME280;41944;52.078;-0.058;2023-04-28T00:13:01;100574.76;;;10.87;100.00
56070;BME280;41944;52.078;-0.058;2023-04-28T00:15:28;100579.16;;;10.63;100.00
56070;BME280;41944;52.078;-0.058;2023-04-28T00:17:55;100568.65;;;10.72;100.00
56070;BME280;41944;52.078;-0.058;2023-04-28T00:20:22;100562.75;;;10.87;100.00
56070;BME280;41944;52.078;-0.058;2023-04-28T00:22:48;100561.94;;;10.87;100.00
56070;BME280;41944;52.078;-0.058;2023-04-28T00:25:16;100559.21;;;10.93;100.00
56070;BME280;41944;52.078;-0.058;2023-04-28T00:27:43;100556.04;;;10.92;100.00
56070;BME280;41944;52.078;-0.058;2023-04-28T00:30:11;100550.94;;;10.95;100.00
56070;BME280;41944;52.078;-0.058;2023-04-28T00:32:38;100552.38;;;10.88;100.00
56070;BME280;41944;52.078;-0.058;2023-04-28T00:35:05;100547.84;;;10.81;100.00
56070;BME280;41944;52.078;-0.058;2023-04-28T00:37:35;100540.79;;;10.87;100.00
56070;BME280;41944;52.078;-0.058;2023-04-28T00:40:03;100537.08;;;10.85;100.00
56070;BME280;41944;52.078;-0.058;2023-04-28T00:42:30;100536.94;;;10.96;100.00
56070;BME280;41944;52.078;-0.058;2023-04-28T00:44:58;100533.46;;;10.88;100.00
56070;BME280;41944;52.078;-0.058;2023-04-28T00:47:25;100534.34;;;10.94;100.00
56070;BME280;41944;52.078;-0.058;2023-04-28T00:49:52;100529.37;;;10.91;100.00
56070;BME280;41944;52.078;-0.058;2023-04-28T00:52:20;100524.21;;;10.88;100.00
56070;BME280;41944;52.078;-0.058;2023-04-28T00:54:46;100524.20;;;10.99;100.00
56070;BME280;41944;52.078;-0.058;2023-04-28T00:57:14;100521.45;;;11.09;100.00
56070;BME280;41944;52.078;-0.058;2023-04-28T00:59:42;100517.38;;;11.17;100.00
56070;BME280;41944;52.078;-0.058;2023-04-28T01:02:10;100519.82;;;11.03;100.00
56070;BME280;41944;52.078;-0.058;2023-04-28T01:04:37;100523.99;;;10.98;100.00
56070;BME280;41944;52.078;-0.058;2023-04-28T01:07:05;100521.44;;;11.04;100.00
56070;BME280;41944;52.078;-0.058;2023-04-28T01:09:32;100519.49;;;11.03;100.00
56070;BME280;41944;52.078;-0.058;2023-04-28T01:11:59;100517.83;;;10.98;100.00
56070;BME280;41944;52.078;-0.058;2023-04-28T01:14:26;100515.03;;;11.03;100.00
56070;BME280;41944;52.078;-0.058;2023-04-28T01:16:53;100516.24;;;10.92;100.00
56070;BME280;41944;52.078;-0.058;2023-04-28T01:19:22;100511.18;;;10.88;100.00
56070;BME280;41944;52.078;-0.058;2023-04-28T01:21:49;100508.69;;;10.97;100.00
56070;BME280;41944;52.078;-0.058;2023-04-28T01:24:16;100512.11;;;10.99;100.00
56070;BME280;41944;52.078;-0.058;2023-04-28T01:26:44;100509.48;;;11.05;100.00
56070;BME280;41944;52.078;-0.058;2023-04-28T01:29:11;100509.21;;;11.08;100.00
56070;BME280;41944;52.078;-0.058;2023-04-28T01:31:39;100504.92;;;11.16;100.00
56070;BME280;41944;52.078;-0.058;2023-04-28T01:34:06;100503.39;;;11.00;100.00
56070;BME280;41944;52.078;-0.058;2023-04-28T01:36:33;100505.95;;;11.18;100.00
56070;BME280;41944;52.078;-0.058;2023-04-28T01:39:00;100504.75;;;11.23;100.00
56070;BME280;41944;52.078;-0.058;2023-04-28T01:41:26;100506.46;;;11.11;100.00
56070;BME280;41944;52.078;-0.058;2023-04-28T01:43:54;100503.82;;;11.06;100.00
56070;BME280;41944;52.078;-0.058;2023-04-28T01:46:21;100504.51;;;10.88;100.00
56070;BME280;41944;52.078;-0.058;2023-04-28T01:48:48;100503.20;;;10.78;100.00
56070;BME280;41944;52.078;-0.058;2023-04-28T01:51:15;100500.38;;;10.84;100.00
56070;BME280;41944;52.078;-0.058;2023-04-28T01:53:42;100495.60;;;11.10;100.00
56070;BME280;41944;52.078;-0.058;2023-04-28T01:56:10;100492.32;;;11.09;100.00
56070;BME280;41944;52.078;-0.058;2023-04-28T01:58:37;100486.34;;;11.02;100.00
56070;BME280;41944;52.078;-0.058;2023-04-28T02:01:04;100485.86;;;11.10;100.00
56070;BME280;41944;52.078;-0.058;2023-04-28T02:03:31;100479.59;;;11.05;100.00
56070;BME280;41944;52.078;-0.058;2023-04-28T02:05:58;100478.81;;;11.08;100.00
56070;BME280;41944;52.078;-0.058;2023-04-28T02:08:25;100481.88;;;11.24;100.00
56070;BME280;41944;52.078;-0.058;2023-04-28T02:10:52;100481.97;;;11.19;100.00
56070;BME280;41944;52.078;-0.058;2023-04-28T02:13:19;100481.17;;;11.08;100.00
56070;BME280;41944;52.078;-0.058;2023-04-28T02:15:47;100482.01;;;10.97;100.00
56070;BME280;41944;52.078;-0.058;2023-04-28T02:18:14;100484.32;;;10.87;100.00
56070;BME280;41944;52.078;-0.058;2023-04-28T02:20:41;100483.46;;;10.90;100.00
56070;BME280;41944;52.078;-0.058;2023-04-28T02:23:08;100484.80;;;11.04;100.00
56070;BME280;41944;52.078;-0.058;2023-04-28T02:25:36;100482.27;;;11.21;100.00
56070;BME280;41944;52.078;-0.058;2023-04-28T02:28:02;100482.16;;;11.34;100.00
56070;BME280;41944;52.078;-0.058;2023-04-28T02:30:30;100479.26;;;11.29;100.00
56070;BME280;41944;52.078;-0.058;2023-04-28T02:32:57;100478.99;;;11.27;100.00
56070;BME280;41944;52.078;-0.058;2023-04-28T02:35:24;100474.34;;;11.40;100.00
56070;BME280;41944;52.078;-0.058;2023-04-28T02:37:51;100472.26;;;11.57;100.00
56070;BME280;41944;52.078;-0.058;2023-04-28T02:40:18;100468.29;;;11.37;100.00
56070;BME280;41944;52.078;-0.058;2023-04-28T02:42:45;100467.39;;;11.54;100.00
56070;BME280;41944;52.078;-0.058;2023-04-28T02:45:13;100470.61;;;11.50;100.00
56070;BME280;41944;52.078;-0.058;2023-04-28T02:47:40;100472.08;;;11.32;100.00
56070;BME280;41944;52.078;-0.058;2023-04-28T02:50:08;100470.98;;;11.47;100.00
56070;BME280;41944;52.078;-0.058;2023-04-28T02:52:35;100474.12;;;11.58;100.00
56070;BME280;41944;52.078;-0.058;2023-04-28T02:55:03;100473.15;;;11.67;100.00
56070;BME280;41944;52.078;-0.058;2023-04-28T02:57:30;100473.10;;;11.72;100.00
56070;BME280;41944;52.078;-0.058;2023-04-28T02:59:57;100471.99;;;11.61;100.00
56070;BME280;41944;52.078;-0.058;2023-04-28T03:02:24;100472.47;;;11.63;100.00
56070;BME280;41944;52.078;-0.058;2023-04-28T03:04:51;100471.02;;;11.46;100.00
56070;BME280;41944;52.078;-0.058;2023-04-28T03:07:18;100471.97;;;11.40;100.00
56070;BME280;41944;52.078;-0.058;2023-04-28T03:09:45;100470.09;;;11.32;100.00
56070;BME280;41944;52.078;-0.058;2023-04-28T03:12:12;100468.74;;;11.45;100.00
56070;BME280;41944;52.078;-0.058;2023-04-28T03:14:39;100467.54;;;11.60;100.00
56070;BME280;41944;52.078;-0.058;2023-04-28T03:17:06;100463.76;;;11.68;100.00
56070;BME280;41944;52.078;-0.058;2023-04-28T03:19:34;100463.07;;;11.64;100.00
56070;BME280;41944;52.078;-0.058;2023-04-28T03:22:01;100466.57;;;11.64;100.00
56070;BME280;41944;52.078;-0.058;2023-04-28T03:24:28;100462.75;;;11.44;100.00
56070;BME280;41944;52.078;-0.058;2023-04-28T03:26:56;100459.05;;;11.48;100.00
56070;BME280;41944;52.078;-0.058;2023-04-28T03:29:23;100455.36;;;11.37;100.00
56070;BME280;41944;52.078;-0.058;2023-04-28T03:31:50;100453.17;;;11.48;100.00
56070;BME280;41944;52.078;-0.058;2023-04-28T03:34:17;100451.92;;;11.63;100.00
56070;BME280;41944;52.078;-0.058;2023-04-28T03:36:44;100448.76;;;11.68;100.00
56070;BME280;41944;52.078;-0.058;2023-04-28T03:39:11;100448.59;;;11.68;100.00
56070;BME280;41944;52.078;-0.058;2023-04-28T03:41:38;100447.26;;;11.55;100.00
56070;BME280;41944;52.078;-0.058;2023-04-28T03:44:05;100444.77;;;11.38;100.00
56070;BME280;41944;52.078;-0.058;2023-04-28T03:46:32;100446.74;;;11.46;100.00
56070;BME280;41944;52.078;-0.058;2023-04-28T03:48:59;100446.53;;;11.46;100.00
56070;BME280;41944;52.078;-0.058;2023-04-28T03:51:26;100449.51;;;11.37;100.00
56070;BME280;41944;52.078;-0.058;2023-04-28T03:53:53;100452.53;;;11.21;100.00
56070;BME280;41944;52.078;-0.058;2023-04-28T03:56:21;100455.03;;;11.08;100.00
56070;BME280;41944;52.078;-0.058;2023-04-28T03:58:47;100455.79;;;11.06;100.00
56070;BME280;41944;52.078;-0.058;2023-04-28T04:01:14;100454.50;;;11.05;100.00
56070;BME280;41944;52.078;-0.058;2023-04-28T04:03:41;100452.88;;;11.03;100.00
56070;BME280;41944;52.078;-0.058;2023-04-28T04:06:08;100454.78;;;11.36;100.00
56070;BME280;41944;52.078;-0.058;2023-04-28T04:08:36;100456.54;;;11.56;100.00
56070;BME280;41944;52.078;-0.058;2023-04-28T04:11:03;100458.20;;;11.60;100.00
56070;BME280;41944;52.078;-0.058;2023-04-28T04:13:30;100458.09;;;11.75;100.00
56070;BME280;41944;52.078;-0.058;2023-04-28T04:15:57;100457.45;;;11.70;100.00
56070;BME280;41944;52.078;-0.058;2023-04-28T04:18:25;100459.92;;;11.73;100.00
56070;BME280;41944;52.078;-0.058;2023-04-28T04:20:52;100457.75;;;11.85;100.00
56070;BME280;41944;52.078;-0.058;2023-04-28T04:23:19;100458.25;;;11.84;100.00
56070;BME280;41944;52.078;-0.058;2023-04-28T04:25:46;100460.29;;;11.68;100.00
56070;BME280;41944;52.078;-0.058;2023-04-28T04:28:14;100461.72;;;11.83;100.00
56070;BME280;41944;52.078;-0.058;2023-04-28T04:30:42;100461.23;;;11.85;100.00
56070;BME280;41944;52.078;-0.058;2023-04-28T04:33:09;100463.01;;;11.91;100.00
56070;BME280;41944;52.078;-0.058;2023-04-28T04:35:36;100463.51;;;12.05;100.00
56070;BME280;41944;52.078;-0.058;2023-04-28T04:38:04;100466.07;;;12.04;100.00
56070;BME280;41944;52.078;-0.058;2023-04-28T04:40:31;100466.97;;;12.06;100.00
56070;BME280;41944;52.078;-0.058;2023-04-28T04:42:57;100466.33;;;11.96;100.00
56070;BME280;41944;52.078;-0.058;2023-04-28T04:45:24;100469.68;;;12.08;100.00
56070;BME280;41944;52.078;-0.058;2023-04-28T04:47:51;100469.84;;;12.17;100.00
56070;BME280;41944;52.078;-0.058;2023-04-28T04:50:18;100471.29;;;12.19;100.00
56070;BME280;41944;52.078;-0.058;2023-04-28T04:52:46;100467.59;;;12.34;100.00
56070;BME280;41944;52.078;-0.058;2023-04-28T04:55:13;100465.53;;;12.27;100.00
56070;BME280;41944;52.078;-0.058;2023-04-28T04:57:40;100465.43;;;12.30;100.00
56070;BME280;41944;52.078;-0.058;2023-04-28T05:00:08;100464.57;;;12.41;100.00
56070;BME280;41944;52.078;-0.058;2023-04-28T05:02:35;100466.57;;;12.39;100.00
56070;BME280;41944;52.078;-0.058;2023-04-28T05:05:02;100471.20;;;12.49;100.00
56070;BME280;41944;52.078;-0.058;2023-04-28T05:07:30;100475.65;;;12.41;100.00
56070;BME280;41944;52.078;-0.058;2023-04-28T05:09:57;100476.96;;;12.27;100.00
56070;BME280;41944;52.078;-0.058;2023-04-28T05:12:25;100476.51;;;12.26;100.00
56070;BME280;41944;52.078;-0.058;2023-04-28T05:14:52;100476.56;;;12.42;100.00
56070;BME280;41944;52.078;-0.058;2023-04-28T05:17:19;100482.64;;;12.40;100.00
56070;BME280;41944;52.078;-0.058;2023-04-28T05:19:47;100488.03;;;12.40;100.00
56070;BME280;41944;52.078;-0.058;2023-04-28T05:22:14;100489.45;;;12.46;100.00
56070;BME280;41944;52.078;-0.058;2023-04-28T05:24:42;100495.52;;;12.49;100.00
56070;BME280;41944;52.078;-0.058;2023-04-28T05:27:09;100495.20;;;12.51;100.00
56070;BME280;41944;52.078;-0.058;2023-04-28T05:29:36;100500.67;;;12.67;100.00
56070;BME280;41944;52.078;-0.058;2023-04-28T05:32:03;100504.93;;;12.69;100.00
56070;BME280;41944;52.078;-0.058;2023-04-28T05:34:31;100503.47;;;12.69;100.00
56070;BME280;41944;52.078;-0.058;2023-04-28T05:36:58;100506.77;;;12.70;100.00
56070;BME280;41944;52.078;-0.058;2023-04-28T05:39:25;100505.30;;;12.73;100.00
56070;BME280;41944;52.078;-0.058;2023-04-28T05:41:52;100506.07;;;12.78;100.00
56070;BME280;41944;52.078;-0.058;2023-04-28T05:44:19;100501.67;;;12.88;100.00
56070;BME280;41944;52.078;-0.058;2023-04-28T05:46:46;100494.52;;;12.93;100.00
56070;BME280;41944;52.078;-0.058;2023-04-28T05:49:13;100493.00;;;13.01;100.00
56070;BME280;41944;52.078;-0.058;2023-04-28T05:51:40;100494.21;;;13.01;100.00
56070;BME280;41944;52.078;-0.058;2023-04-28T05:54:07;100498.34;;;13.14;100.00
56070;BME280;41944;52.078;-0.058;2023-04-28T05:56:34;100504.27;;;13.27;100.00
56070;BME280;41944;52.078;-0.058;2023-04-28T05:59:01;100511.67;;;13.38;100.00
56070;BME280;41944;52.078;-0.058;2023-04-28T06:01:29;100512.04;;;13.46;100.00
56070;BME280;41944;52.078;-0.058;2023-04-28T06:03:56;100511.56;;;13.39;100.00
56070;BME280;41944;52.078;-0.058;2023-04-28T06:06:24;100511.85;;;13.33;100.00
56070;BME280;41944;52.078;-0.058;2023-04-28T06:08:51;100517.36;;;13.34;100.00
56070;BME280;41944;52.078;-0.058;2023-04-28T06:11:18;100517.81;;;13.42;100.00
56070;BME280;41944;52.078;-0.058;2023-04-28T06:13:45;100516.32;;;13.50;100.00
56070;BME280;41944;52.078;-0.058;2023-04-28T06:16:12;100519.75;;;13.44;100.00
56070;BME280;41944;52.078;-0.058;2023-04-28T06:18:39;100521.88;;;13.51;100.00
56070;BME280;41944;52.078;-0.058;2023-04-28T06:21:06;100523.88;;;13.64;100.00
56070;BME280;41944;52.078;-0.058;2023-04-28T06:23:33;100522.09;;;13.55;100.00
56070;BME280;41944;52.078;-0.058;2023-04-28T06:26:00;100524.01;;;13.65;100.00
56070;BME280;41944;52.078;-0.058;2023-04-28T06:28:27;100520.90;;;13.71;100.00
56070;BME280;41944;52.078;-0.058;2023-04-28T06:30:54;100519.78;;;13.74;100.00
56070;BME280;41944;52.078;-0.058;2023-04-28T06:33:21;100524.91;;;13.66;100.00
56070;BME280;41944;52.078;-0.058;2023-04-28T06:35:48;100525.44;;;13.76;100.00
56070;BME280;41944;52.078;-0.058;2023-04-28T06:38:15;100524.73;;;13.81;100.00
56070;BME280;41944;52.078;-0.058;2023-04-28T06:40:42;100526.22;;;13.95;100.00
56070;BME280;41944;52.078;-0.058;2023-04-28T06:43:10;100532.94;;;14.09;100.00
56070;BME280;41944;52.078;-0.058;2023-04-28T06:45:36;100529.89;;;14.15;100.00
56070;BME280;41944;52.078;-0.058;2023-04-28T06:48:04;100533.97;;;14.05;100.00
56070;BME280;41944;52.078;-0.058;2023-04-28T06:50:31;100537.37;;;14.20;100.00
56070;BME280;41944;52.078;-0.058;2023-04-28T06:52:58;100538.35;;;14.27;100.00
56070;BME280;41944;52.078;-0.058;2023-04-28T06:55:25;100540.71;;;14.29;100.00
56070;BME280;41944;52.078;-0.058;2023-04-28T06:57:53;100541.27;;;14.29;100.00
56070;BME280;41944;52.078;-0.058;2023-04-28T07:00:20;100543.26;;;14.31;100.00
56070;BME280;41944;52.078;-0.058;2023-04-28T07:02:47;100547.72;;;14.36;100.00
56070;BME280;41944;52.078;-0.058;2023-04-28T07:05:14;100549.89;;;14.36;100.00
56070;BME280;41944;52.078;-0.058;2023-04-28T07:07:42;100552.27;;;14.46;100.00
56070;BME280;41944;52.078;-0.058;2023-04-28T07:10:10;100552.93;;;14.52;100.00
56070;BME280;41944;52.078;-0.058;2023-04-28T07:12:37;100551.87;;;14.52;100.00
56070;BME280;41944;52.078;-0.058;2023-04-28T07:15:04;100554.90;;;14.54;100.00
56070;BME280;41944;52.078;-0.058;2023-04-28T07:17:31;100559.78;;;14.66;100.00
56070;BME280;41944;52.078;-0.058;2023-04-28T07:19:58;100552.89;;;14.79;100.00
56070;BME280;41944;52.078;-0.058;2023-04-28T07:22:25;100554.43;;;14.85;100.00
56070;BME280;41944;52.078;-0.058;2023-04-28T07:24:52;100554.14;;;14.87;100.00
56070;BME280;41944;52.078;-0.058;2023-04-28T07:27:18;100560.56;;;15.01;100.00
56070;BME280;41944;52.078;-0.058;2023-04-28T07:29:45;100561.96;;;15.07;100.00
56070;BME280;41944;52.078;-0.058;2023-04-28T07:32:12;100563.59;;;15.08;100.00
56070;BME280;41944;52.078;-0.058;2023-04-28T07:34:39;100563.78;;;15.09;100.00
56070;BME280;41944;52.078;-0.058;2023-04-28T07:37:06;100564.56;;;15.10;100.00
56070;BME280;41944;52.078;-0.058;2023-04-28T07:39:33;100568.58;;;15.06;100.00
56070;BME280;41944;52.078;-0.058;2023-04-28T07:42:01;100574.58;;;15.17;100.00
56070;BME280;41944;52.078;-0.058;2023-04-28T07:44:29;100571.20;;;15.17;100.00
56070;BME280;41944;52.078;-0.058;2023-04-28T07:46:58;100573.15;;;15.16;100.00
56070;BME280;41944;52.078;-0.058;2023-04-28T07:49:25;100570.87;;;15.20;100.00
56070;BME280;41944;52.078;-0.058;2023-04-28T07:51:53;100573.80;;;15.24;100.00
56070;BME280;41944;52.078;-0.058;2023-04-28T07:54:19;100575.69;;;15.39;100.00
56070;BME280;41944;52.078;-0.058;2023-04-28T07:56:46;100575.18;;;15.39;100.00
56070;BME280;41944;52.078;-0.058;2023-04-28T07:59:14;100578.78;;;15.54;96.64
56070;BME280;41944;52.078;-0.058;2023-04-28T08:01:41;100584.08;;;15.62;94.47
56070;BME280;41944;52.078;-0.058;2023-04-28T08:04:08;100585.29;;;15.64;95.97
56070;BME280;41944;52.078;-0.058;2023-04-28T08:06:35;100587.55;;;15.79;95.25
56070;BME280;41944;52.078;-0.058;2023-04-28T08:09:02;100590.87;;;15.87;94.29
56070;BME280;41944;52.078;-0.058;2023-04-28T08:11:28;100595.96;;;15.93;94.32
56070;BME280;41944;52.078;-0.058;2023-04-28T08:13:55;100599.67;;;16.00;93.43
56070;BME280;41944;52.078;-0.058;2023-04-28T08:16:22;100600.94;;;16.02;93.38
56070;BME280;41944;52.078;-0.058;2023-04-28T08:18:49;100605.73;;;16.07;93.27
56070;BME280;41944;52.078;-0.058;2023-04-28T08:21:16;100607.37;;;16.03;93.83
56070;BME280;41944;52.078;-0.058;2023-04-28T08:23:43;100610.53;;;16.12;93.55
56070;BME280;41944;52.078;-0.058;2023-04-28T08:26:10;100610.34;;;16.11;93.71
56070;BME280;41944;52.078;-0.058;2023-04-28T08:28:37;100609.83;;;16.12;95.05
56070;BME280;41944;52.078;-0.058;2023-04-28T08:31:05;100612.93;;;16.05;93.05
56070;BME280;41944;52.078;-0.058;2023-04-28T08:33:31;100613.49;;;15.97;93.32
56070;BME280;41944;52.078;-0.058;2023-04-28T08:35:58;100614.54;;;15.91;94.22
56070;BME280;41944;52.078;-0.058;2023-04-28T08:38:25;100615.20;;;15.73;96.90
56070;BME280;41944;52.078;-0.058;2023-04-28T08:40:53;100612.88;;;15.86;96.67
56070;BME280;41944;52.078;-0.058;2023-04-28T08:43:20;100614.34;;;15.85;96.68
56070;BME280;41944;52.078;-0.058;2023-04-28T08:45:47;100615.18;;;15.93;95.02
56070;BME280;41944;52.078;-0.058;2023-04-28T08:48:17;100616.90;;;15.98;93.28
56070;BME280;41944;52.078;-0.058;2023-04-28T08:50:49;100618.56;;;15.99;94.80
56070;BME280;41944;52.078;-0.058;2023-04-28T08:53:21;100620.94;;;16.02;95.15
56070;BME280;41944;52.078;-0.058;2023-04-28T08:55:50;100623.53;;;16.07;94.44
56070;BME280;41944;52.078;-0.058;2023-04-28T08:58:18;100627.67;;;16.08;92.62
56070;BME280;41944;52.078;-0.058;2023-04-28T09:00:45;100629.58;;;16.10;93.16
56070;BME280;41944;52.078;-0.058;2023-04-28T09:03:13;100633.59;;;16.06;94.62
56070;BME280;41944;52.078;-0.058;2023-04-28T09:05:40;100636.16;;;16.02;93.66
56070;BME280;41944;52.078;-0.058;2023-04-28T09:08:07;100638.32;;;15.99;92.73
56070;BME280;41944;52.078;-0.058;2023-04-28T09:10:34;100644.08;;;16.00;92.77
56070;BME280;41944;52.078;-0.058;2023-04-28T09:13:01;100645.81;;;16.00;91.46
56070;BME280;41944;52.078;-0.058;2023-04-28T09:15:30;100652.34;;;16.03;91.71
56070;BME280;41944;52.078;-0.058;2023-04-28T09:17:58;100653.30;;;15.99;89.59
56070;BME280;41944;52.078;-0.058;2023-04-28T09:20:27;100653.62;;;15.99;89.59
56070;BME280;41944;52.078;-0.058;2023-04-28T09:22:55;100661.32;;;15.86;92.05
56070;BME280;41944;52.078;-0.058;2023-04-28T09:25:23;100659.73;;;15.87;92.28
56070;BME280;41944;52.078;-0.058;2023-04-28T09:27:50;100666.03;;;15.78;94.53
56070;BME280;41944;52.078;-0.058;2023-04-28T09:30:17;100666.96;;;15.87;93.57
56070;BME280;41944;52.078;-0.058;2023-04-28T09:32:44;100668.74;;;16.06;90.33
56070;BME280;41944;52.078;-0.058;2023-04-28T09:35:11;100670.56;;;16.17;89.84
56070;BME280;41944;52.078;-0.058;2023-04-28T09:37:37;100670.88;;;16.22;89.58
56070;BME280;41944;52.078;-0.058;2023-04-28T09:40:07;100674.31;;;16.28;92.37
56070;BME280;41944;52.078;-0.058;2023-04-28T09:42:35;100679.20;;;16.34;90.31
56070;BME280;41944;52.078;-0.058;2023-04-28T09:45:04;100680.01;;;16.33;91.34
56070;BME280;41944;52.078;-0.058;2023-04-28T09:47:32;100685.92;;;16.39;89.44
56070;BME280;41944;52.078;-0.058;2023-04-28T09:50:01;100688.32;;;16.35;88.69
56070;BME280;41944;52.078;-0.058;2023-04-28T09:52:28;100686.91;;;16.36;88.03
56070;BME280;41944;52.078;-0.058;2023-04-28T09:54:56;100693.70;;;16.46;88.69
56070;BME280;41944;52.078;-0.058;2023-04-28T09:57:23;100691.12;;;16.40;89.73
56070;BME280;41944;52.078;-0.058;2023-04-28T09:59:50;100698.84;;;16.35;88.84
56070;BME280;41944;52.078;-0.058;2023-04-28T10:02:19;100702.97;;;16.36;89.67
56070;BME280;41944;52.078;-0.058;2023-04-28T10:04:48;100703.84;;;16.29;90.04
56070;BME280;41944;52.078;-0.058;2023-04-28T10:07:16;100706.39;;;16.31;93.44
56070;BME280;41944;52.078;-0.058;2023-04-28T10:09:44;100706.88;;;16.41;91.95
56070;BME280;41944;52.078;-0.058;2023-04-28T10:12:12;100711.92;;;16.38;90.44
56070;BME280;41944;52.078;-0.058;2023-04-28T10:14:40;100715.65;;;16.45;88.07
56070;BME280;41944;52.078;-0.058;2023-04-28T10:17:07;100719.39;;;16.55;87.60
56070;BME280;41944;52.078;-0.058;2023-04-28T10:19:34;100718.45;;;16.55;87.57
56070;BME280;41944;52.078;-0.058;2023-04-28T10:22:14;100721.24;;;16.52;86.84
56070;BME280;41944;52.078;-0.058;2023-04-28T10:24:56;100725.47;;;16.41;84.53
56070;BME280;41944;52.078;-0.058;2023-04-28T10:27:29;100730.23;;;16.26;86.06
56070;BME280;41944;52.078;-0.058;2023-04-28T10:30:09;100733.41;;;16.12;87.64
56070;BME280;41944;52.078;-0.058;2023-04-28T10:32:36;100736.62;;;16.11;85.78
56070;BME280;41944;52.078;-0.058;2023-04-28T10:36:09;100742.40;;;16.05;87.64
56070;BME280;41944;52.078;-0.058;2023-04-28T10:39:07;100743.15;;;15.96;87.29
56070;BME280;41944;52.078;-0.058;2023-04-28T10:41:35;100748.34;;;16.03;87.46
56070;BME280;41944;52.078;-0.058;2023-04-28T10:44:40;100750.82;;;16.13;87.79
56070;BME280;41944;52.078;-0.058;2023-04-28T10:47:09;100757.06;;;16.33;87.51
56070;BME280;41944;52.078;-0.058;2023-04-28T10:50:09;100758.94;;;16.51;86.95
56070;BME280;41944;52.078;-0.058;2023-04-28T10:52:52;100759.87;;;16.83;84.86
56070;BME280;41944;52.078;-0.058;2023-04-28T10:55:29;100766.00;;;17.06;84.60
56070;BME280;41944;52.078;-0.058;2023-04-28T10:59:24;100766.93;;;17.38;82.38
56070;BME280;41944;52.078;-0.058;2023-04-28T11:01:51;100767.14;;;17.53;80.04
56070;BME280;41944;52.078;-0.058;2023-04-28T11:04:18;100769.22;;;17.57;79.89
56070;BME280;41944;52.078;-0.058;2023-04-28T11:06:46;100774.30;;;17.66;79.37
56070;BME280;41944;52.078;-0.058;2023-04-28T11:09:46;100773.55;;;17.64;80.17
56070;BME280;41944;52.078;-0.058;2023-04-28T11:12:14;100778.10;;;17.56;79.71
56070;BME280;41944;52.078;-0.058;2023-04-28T11:14:41;100785.43;;;17.45;81.14
56070;BME280;41944;52.078;-0.058;2023-04-28T11:17:09;100787.53;;;17.06;82.55
56070;BME280;41944;52.078;-0.058;2023-04-28T11:19:38;100786.08;;;17.13;83.00
56070;BME280;41944;52.078;-0.058;2023-04-28T11:22:13;100790.63;;;17.07;82.91
56070;BME280;41944;52.078;-0.058;2023-04-28T11:24:40;100790.76;;;17.14;80.01
56070;BME280;41944;52.078;-0.058;2023-04-28T11:27:08;100794.09;;;17.19;79.03
56070;BME280;41944;52.078;-0.058;2023-04-28T11:29:36;100796.58;;;17.32;79.15
56070;BME280;41944;52.078;-0.058;2023-04-28T11:32:04;100803.46;;;16.92;79.65
56070;BME280;41944;52.078;-0.058;2023-04-28T11:34:31;100802.96;;;17.03;80.61
56070;BME280;41944;52.078;-0.058;2023-04-28T11:36:58;100807.18;;;16.94;78.90
56070;BME280;41944;52.078;-0.058;2023-04-28T11:39:27;100808.13;;;17.09;79.25
56070;BME280;41944;52.078;-0.058;2023-04-28T11:41:55;100814.29;;;17.29;80.06
56070;BME280;41944;52.078;-0.058;2023-04-28T11:44:24;100818.90;;;17.42;78.16
56070;BME280;41944;52.078;-0.058;2023-04-28T11:46:53;100822.37;;;17.52;78.93
56070;BME280;41944;52.078;-0.058;2023-04-28T11:49:21;100828.87;;;17.57;76.35
56070;BME280;41944;52.078;-0.058;2023-04-28T11:51:50;100833.54;;;17.24;77.26
56070;BME280;41944;52.078;-0.058;2023-04-28T11:54:22;100837.59;;;17.24;76.98
56070;BME280;41944;52.078;-0.058;2023-04-28T11:56:51;100846.18;;;17.09;77.91
56070;BME280;41944;52.078;-0.058;2023-04-28T11:59:22;100846.07;;;17.20;79.20
56070;BME280;41944;52.078;-0.058;2023-04-28T12:01:51;100845.28;;;17.24;77.11
56070;BME280;41944;52.078;-0.058;2023-04-28T12:04:28;100852.92;;;17.49;75.68
56070;BME280;41944;52.078;-0.058;2023-04-28T12:07:00;100853.21;;;17.40;73.74
56070;BME280;41944;52.078;-0.058;2023-04-28T12:09:28;100851.77;;;17.32;73.27
56070;BME280;41944;52.078;-0.058;2023-04-28T12:11:56;100865.55;;;17.29;72.75
56070;BME280;41944;52.078;-0.058;2023-04-28T12:14:24;100873.13;;;17.24;74.05
56070;BME280;41944;52.078;-0.058;2023-04-28T12:16:51;100880.16;;;17.19;74.00
56070;BME280;41944;52.078;-0.058;2023-04-28T12:19:19;100882.57;;;17.24;74.54
56070;BME280;41944;52.078;-0.058;2023-04-28T12:22:04;100881.09;;;17.31;72.87
56070;BME280;41944;52.078;-0.058;2023-04-28T12:24:31;100887.72;;;17.43;72.71
56070;BME280;41944;52.078;-0.058;2023-04-28T12:27:16;100892.37;;;17.43;71.53
56070;BME280;41944;52.078;-0.058;2023-04-28T12:29:43;100895.18;;;17.37;72.50
56070;BME280;41944;52.078;-0.058;2023-04-28T12:32:11;100900.06;;;17.20;71.46
56070;BME280;41944;52.078;-0.058;2023-04-28T12:34:40;100896.90;;;17.17;72.61
56070;BME280;41944;52.078;-0.058;2023-04-28T12:37:07;100903.41;;;17.51;71.77
56070;BME280;41944;52.078;-0.058;2023-04-28T12:39:35;100903.66;;;17.64;71.28